Time;durP1;ratioP1;P1;durP2;ratioP2;P2;SDS_P1;SDS_P2;PMS_P1;PMS_P2;Temp;Humidity;BMP_temperature;BMP_pressure;BME280_temperature;BME280_humidity;BME280_pressure;Samples;Min_cycle;Max_cycle;Signal;HPM_P1;HPM_P2
2023/08/25 00:02:16;;;;;;;24.88;13.65;;;;;;;25.73;85.55;100566.59;5091997;28;20433;-76
2023/08/25 00:04:42;;;;;;;22.23;14.48;;;;;;;25.69;85.69;100576.38;5091586;28;20388;-76
2023/08/25 00:07:08;;;;;;;36.95;13.90;;;;;;;25.61;85.58;100565.66;5091830;28;20030;-77
2023/08/25 00:09:33;;;;;;;24.65;15.45;;;;;;;25.57;86.27;100566.31;5091437;28;20047;-77
2023/08/25 00:11:59;;;;;;;18.27;12.75;;;;;;;25.46;86.28;100567.84;5091477;28;20484;-79
2023/08/25 00:14:24;;;;;;;20.17;13.00;;;;;;;25.38;86.38;100554.38;5091249;28;20450;-77
2023/08/25 00:16:49;;;;;;;18.52;13.77;;;;;;;25.33;85.89;100541.25;5090169;28;20028;-78
2023/08/25 00:19:17;;;;;;;19.33;12.55;;;;;;;25.44;85.65;100570.81;5090118;28;20415;-78
2023/08/25 00:21:42;;;;;;;24.38;14.07;;;;;;;25.40;85.84;100568.75;5091557;28;20024;-74
2023/08/25 00:24:08;;;;;;;18.60;14.15;;;;;;;25.30;86.43;100547.22;5091203;28;20034;-75
2023/08/25 00:26:33;;;;;;;20.30;13.90;;;;;;;25.39;86.39;100570.66;5090475;28;20028;-75
2023/08/25 00:28:59;;;;;;;24.70;13.82;;;;;;;25.43;86.68;100562.78;5089880;28;20036;-75
2023/08/25 00:31:24;;;;;;;24.80;14.00;;;;;;;25.43;86.67;100568.31;5091277;28;20440;-76
2023/08/25 00:33:50;;;;;;;17.30;14.73;;;;;;;25.41;86.68;100570.44;5091133;28;20059;-75
2023/08/25 00:36:16;;;;;;;22.70;14.38;;;;;;;25.47;85.74;100574.22;5091170;28;20051;-77
2023/08/25 00:38:42;;;;;;;17.15;13.43;;;;;;;25.40;85.52;100563.25;5090895;28;20071;-77
2023/08/25 00:41:08;;;;;;;21.83;14.38;;;;;;;25.31;85.33;100561.81;5090812;28;20048;-76
2023/08/25 00:43:34;;;;;;;21.83;14.32;;;;;;;25.34;85.44;100555.88;5090809;28;20468;-76
2023/08/25 00:46:00;;;;;;;18.50;13.18;;;;;;;25.43;85.35;100568.31;5091243;28;20028;-77
2023/08/25 00:48:27;;;;;;;26.02;13.63;;;;;;;25.27;85.34;100546.81;5090815;28;20104;-77
2023/08/25 00:50:54;;;;;;;27.52;14.05;;;;;;;25.37;85.25;100550.78;5091001;28;20039;-76
2023/08/25 00:53:21;;;;;;;23.67;12.75;;;;;;;25.38;85.54;100565.38;5090708;28;20032;-78
2023/08/25 00:55:47;;;;;;;17.00;13.10;;;;;;;25.43;85.30;100546.28;5090554;28;20028;-77
2023/08/25 00:58:14;;;;;;;30.27;14.57;;;;;;;25.42;85.13;100552.84;5090683;28;20028;-76
2023/08/25 01:00:43;;;;;;;23.80;14.63;;;;;;;25.29;85.26;100539.16;5090386;28;20492;-77
2023/08/25 01:03:09;;;;;;;30.77;13.82;;;;;;;25.27;85.09;100544.06;5090686;28;20031;-77
2023/08/25 01:05:34;;;;;;;18.20;12.55;;;;;;;25.33;85.31;100548.66;5090937;28;20021;-76
2023/08/25 01:08:00;;;;;;;27.05;13.45;;;;;;;25.27;85.33;100546.81;5090488;28;20035;-77
2023/08/25 01:10:55;;;;;;;23.02;13.98;;;;;;;25.27;85.57;100558.66;5090581;28;20403;-77
2023/08/25 01:13:36;;;;;;;22.98;14.27;;;;;;;25.19;85.39;100552.59;5090378;28;20047;-77
2023/08/25 01:16:05;;;;;;;20.00;14.45;;;;;;;25.21;85.39;100559.56;5090542;28;20023;-77
2023/08/25 01:18:33;;;;;;;19.23;14.20;;;;;;;25.21;86.23;100558.72;5071486;28;20032;-76
2023/08/25 01:20:59;;;;;;;21.77;13.57;;;;;;;25.22;85.99;100561.25;5107766;28;20046;-79
2023/08/25 01:23:34;;;;;;;27.83;15.02;;;;;;;25.24;85.96;100559.09;5116917;28;20024;-79
2023/08/25 01:26:01;;;;;;;30.48;14.30;;;;;;;25.22;86.06;100549.38;5116934;28;20024;-82
2023/08/25 01:28:28;;;;;;;22.60;15.43;;;;;;;25.13;86.21;100556.22;5096374;28;20020;-76
2023/08/25 01:30:56;;;;;;;18.73;15.10;;;;;;;25.07;86.05;100532.34;5093527;28;20024;-76
2023/08/25 01:33:23;;;;;;;68.03;20.98;;;;;;;25.21;85.52;100554.03;5094011;28;20028;-75
2023/08/25 01:36:10;;;;;;;29.08;14.98;;;;;;;25.18;85.63;100559.16;5092348;28;20540;-76
2023/08/25 01:38:56;;;;;;;28.70;14.88;;;;;;;24.99;85.47;100533.44;5090896;28;20057;-75
2023/08/25 01:41:32;;;;;;;25.85;14.60;;;;;;;25.15;85.41;100554.09;5090126;28;20028;-77
2023/08/25 01:44:02;;;;;;;42.08;18.50;;;;;;;25.15;85.79;100554.09;5090164;28;20051;-76
2023/08/25 01:46:30;;;;;;;31.52;16.50;;;;;;;25.14;85.67;100552.38;5089920;28;20111;-77
2023/08/25 01:48:57;;;;;;;39.55;16.67;;;;;;;25.15;85.49;100543.06;5089824;28;20050;-76
2023/08/25 01:51:23;;;;;;;31.05;15.77;;;;;;;25.12;86.04;100541.63;5089660;28;20139;-78
2023/08/25 01:53:53;;;;;;;44.88;16.73;;;;;;;25.13;86.16;100551.56;5089588;28;20510;-75
2023/08/25 01:56:19;;;;;;;38.47;15.57;;;;;;;25.16;85.95;100550.28;5089602;28;20028;-76
2023/08/25 01:58:44;;;;;;;27.88;15.63;;;;;;;25.21;85.82;100553.19;5089290;28;20696;-76
2023/08/25 02:01:10;;;;;;;32.92;16.38;;;;;;;25.06;85.53;100537.00;5089698;28;20399;-76
2023/08/25 02:03:35;;;;;;;35.65;15.23;;;;;;;24.98;86.15;100536.41;5089361;28;20028;-76
2023/08/25 02:06:00;;;;;;;29.90;17.10;;;;;;;25.10;86.46;100553.91;5089552;28;20671;-75
2023/08/25 02:08:26;;;;;;;18.63;14.50;;;;;;;25.11;86.01;100548.16;5088094;28;20086;-75
2023/08/25 02:10:52;;;;;;;28.98;15.25;;;;;;;25.09;85.98;100549.47;5089511;28;20032;-77
2023/08/25 02:13:18;;;;;;;28.40;14.80;;;;;;;25.06;86.13;100559.00;5088898;28;20056;-75
2023/08/25 02:15:48;;;;;;;24.70;14.98;;;;;;;25.07;85.55;100562.63;5089258;28;20058;-76
2023/08/25 02:18:13;;;;;;;32.15;15.10;;;;;;;24.99;85.79;100547.19;5089329;28;20024;-76
2023/08/25 02:20:39;;;;;;;22.45;15.05;;;;;;;25.05;85.65;100567.47;5089277;28;20050;-76
2023/08/25 02:23:05;;;;;;;24.52;16.30;;;;;;;24.90;85.98;100541.09;5089492;28;20024;-77
2023/08/25 02:25:31;;;;;;;20.77;15.00;;;;;;;25.00;85.03;100557.16;5089020;28;20563;-76
2023/08/25 02:27:57;;;;;;;25.08;14.07;;;;;;;24.98;84.04;100550.19;5089165;28;20104;-77
2023/08/25 02:30:22;;;;;;;25.17;15.23;;;;;;;25.08;83.91;100580.78;5089072;28;20042;-75
2023/08/25 02:32:48;;;;;;;26.05;15.02;;;;;;;24.78;84.09;100542.84;5089277;28;20024;-76
2023/08/25 02:35:13;;;;;;;22.63;13.65;;;;;;;24.90;83.94;100565.88;5087677;28;20020;-76
2023/08/25 02:38:04;;;;;;;22.75;14.18;;;;;;;24.98;84.23;100580.44;5088992;28;20148;-76
2023/08/25 02:40:30;;;;;;;30.35;16.73;;;;;;;24.90;84.61;100590.63;5088706;28;20480;-76
2023/08/25 02:42:58;;;;;;;30.35;17.15;;;;;;;24.72;85.70;100554.72;5089100;28;20028;-78
2023/08/25 02:45:24;;;;;;;25.70;16.88;;;;;;;24.92;86.71;100573.91;5089199;28;20024;-76
2023/08/25 02:47:50;;;;;;;27.17;17.10;;;;;;;24.92;87.39;100573.91;5088886;28;20079;-76
2023/08/25 02:50:16;;;;;;;30.75;17.30;;;;;;;24.93;87.93;100572.84;5092994;28;20032;-77
2023/08/25 02:52:41;;;;;;;23.35;17.63;;;;;;;24.95;88.08;100559.72;5092898;28;20548;-76
2023/08/25 02:55:07;;;;;;;43.72;19.40;;;;;;;25.02;88.84;100581.69;5091870;28;20031;-76
2023/08/25 02:57:32;;;;;;;32.20;20.90;;;;;;;25.00;89.19;100576.41;5092944;28;20108;-75
2023/08/25 02:59:57;;;;;;;31.98;20.40;;;;;;;24.98;89.71;100569.44;5093258;28;20077;-76
2023/08/25 03:02:23;;;;;;;33.95;22.20;;;;;;;24.93;90.26;100561.84;5091545;28;20105;-77
2023/08/25 03:04:48;;;;;;;42.33;23.02;;;;;;;24.89;91.38;100574.34;5093188;28;20028;-77
2023/08/25 03:07:14;;;;;;;40.88;24.10;;;;;;;24.82;92.64;100577.13;5092836;28;20024;-77
2023/08/25 03:09:39;;;;;;;57.55;23.95;;;;;;;24.87;93.31;100595.72;5091591;28;20055;-76
2023/08/25 03:12:05;;;;;;;37.80;23.27;;;;;;;24.86;93.70;100580.31;5092805;28;20495;-76
2023/08/25 03:14:30;;;;;;;45.33;21.65;;;;;;;24.92;93.40;100587.69;5092340;28;20479;-77
2023/08/25 03:16:56;;;;;;;31.10;21.10;;;;;;;24.84;92.89;100583.25;5092722;28;20020;-79
2023/08/25 03:19:21;;;;;;;48.97;22.35;;;;;;;24.64;93.13;100574.22;5092410;28;20449;-75
2023/08/25 03:21:47;;;;;;;44.88;22.75;;;;;;;24.79;93.11;100607.81;5092391;28;20082;-76
2023/08/25 03:24:12;;;;;;;28.13;17.58;;;;;;;24.72;92.86;100590.47;5092272;28;20735;-77
2023/08/25 03:26:38;;;;;;;25.92;17.15;;;;;;;24.69;90.86;100593.66;5092384;28;20416;-76
2023/08/25 03:29:03;;;;;;;22.05;15.23;;;;;;;24.67;89.64;100595.78;5092644;28;20051;-76
2023/08/25 03:31:29;;;;;;;28.65;16.67;;;;;;;24.72;88.44;100595.13;5092377;28;20032;-76
2023/08/25 03:33:54;;;;;;;24.23;16.77;;;;;;;24.67;87.69;100583.94;5092469;28;20020;-75
2023/08/25 03:36:19;;;;;;;24.95;16.80;;;;;;;24.60;87.91;100575.72;5092141;28;20020;-77
2023/08/25 03:38:45;;;;;;;35.72;22.25;;;;;;;24.74;88.31;100599.34;5092282;28;20109;-77
2023/08/25 03:41:10;;;;;;;38.60;21.20;;;;;;;24.75;89.11;100602.94;5092257;28;20554;-75
2023/08/25 03:43:36;;;;;;;39.85;22.42;;;;;;;24.54;89.65;100568.34;5092212;28;20381;-75
2023/08/25 03:46:03;;;;;;;40.65;23.67;;;;;;;24.71;90.53;100597.03;5091966;28;20115;-81
2023/08/25 03:48:29;;;;;;;49.92;23.65;;;;;;;24.70;91.14;100589.84;5092358;28;20081;-77
2023/08/25 03:50:54;;;;;;;35.83;26.23;;;;;;;24.75;91.52;100587.28;5092004;28;20036;-79
2023/08/25 03:53:20;;;;;;;47.28;28.88;;;;;;;24.60;92.10;100586.72;5091663;28;20066;-79
2023/08/25 03:55:45;;;;;;;52.13;28.35;;;;;;;24.55;92.16;100581.03;5091931;28;20097;-79
2023/08/25 03:58:13;;;;;;;47.35;30.55;;;;;;;24.57;92.63;100570.66;5091997;28;20119;-81
2023/08/25 04:00:38;;;;;;;49.10;30.35;;;;;;;24.64;92.55;100585.22;5089815;28;20028;-77
2023/08/25 04:03:06;;;;;;;44.85;29.90;;;;;;;24.70;93.06;100592.59;5091995;28;20461;-76
2023/08/25 04:05:32;;;;;;;80.00;36.60;;;;;;;24.76;93.20;100589.00;5092135;28;20056;-77
2023/08/25 04:07:57;;;;;;;50.10;30.73;;;;;;;24.85;93.04;100581.34;5056046;28;20039;-76
2023/08/25 04:10:23;;;;;;;47.88;33.08;;;;;;;24.86;93.19;100586.63;5091988;28;20028;-80
2023/08/25 04:12:49;;;;;;;56.28;31.85;;;;;;;24.84;93.46;100591.50;5091891;28;20084;-75
2023/08/25 04:15:14;;;;;;;49.92;30.70;;;;;;;24.77;93.28;100579.66;5088429;28;20051;-72
2023/08/25 04:17:40;;;;;;;66.22;31.42;;;;;;;24.81;93.56;100593.84;5091821;28;20024;-75
2023/08/25 04:20:06;;;;;;;51.15;31.17;;;;;;;24.87;93.23;100604.84;5090962;28;20085;-76
2023/08/25 04:22:31;;;;;;;49.33;30.58;;;;;;;24.82;93.08;100615.66;5091267;28;20032;-79
2023/08/25 04:24:57;;;;;;;65.97;31.30;;;;;;;24.87;93.07;100620.50;5091412;28;20044;-78
2023/08/25 04:27:22;;;;;;;50.33;30.38;;;;;;;24.75;92.79;100598.28;5091045;28;20027;-76
2023/08/25 04:29:49;;;;;;;47.28;30.10;;;;;;;24.83;93.08;100600.81;5090392;28;20028;-75
2023/08/25 04:32:15;;;;;;;53.85;33.88;;;;;;;24.97;92.59;100611.78;5090952;28;20454;-79
2023/08/25 04:34:41;;;;;;;63.38;33.90;;;;;;;24.96;92.84;100610.06;5071284;28;20060;-78
2023/08/25 04:37:06;;;;;;;68.28;38.03;;;;;;;24.83;93.53;100589.81;5090925;28;20664;-80
2023/08/25 04:39:32;;;;;;;52.33;35.88;;;;;;;25.03;93.65;100613.66;5055340;28;20032;-79
2023/08/25 04:41:57;;;;;;;49.28;34.58;;;;;;;25.05;93.77;100603.25;5091071;28;20028;-76
2023/08/25 04:44:22;;;;;;;65.50;34.35;;;;;;;25.03;93.84;100594.38;5090441;28;20028;-79
2023/08/25 04:46:48;;;;;;;70.53;35.63;;;;;;;25.09;93.47;100604.50;5090671;28;20028;-77
2023/08/25 04:49:13;;;;;;;54.67;36.53;;;;;;;25.23;92.94;100623.50;5091047;28;20027;-77
2023/08/25 04:51:39;;;;;;;57.90;33.80;;;;;;;25.28;93.12;100629.19;5090311;28;20032;-80
2023/08/25 04:54:04;;;;;;;54.00;34.60;;;;;;;25.26;92.12;100613.94;5091129;28;20020;-75
2023/08/25 04:56:30;;;;;;;52.05;34.75;;;;;;;25.27;92.40;100622.00;5071314;28;20122;-79
2023/08/25 04:58:55;;;;;;;53.20;33.47;;;;;;;25.25;92.34;100615.03;5090721;28;20062;-77
2023/08/25 05:01:20;;;;;;;56.35;34.25;;;;;;;25.33;92.67;100632.13;5090213;28;20081;-76
2023/08/25 05:03:48;;;;;;;63.20;35.80;;;;;;;25.37;92.11;100633.38;5088806;28;20484;-81
2023/08/25 05:06:14;;;;;;;75.30;34.42;;;;;;;25.55;91.93;100654.69;5090421;28;20024;-78
2023/08/25 05:08:39;;;;;;;66.47;35.13;;;;;;;25.60;91.73;100652.09;5089385;28;20074;-77
2023/08/25 05:11:05;;;;;;;59.88;34.67;;;;;;;25.59;91.23;100638.56;5089989;28;20066;-74
2023/08/25 05:13:30;;;;;;;55.13;32.45;;;;;;;25.79;90.94;100659.41;5090140;28;20415;-75
2023/08/25 05:15:56;;;;;;;61.95;35.70;;;;;;;25.79;90.96;100651.13;5089553;28;20423;-75
2023/08/25 05:18:22;;;;;;;51.15;33.67;;;;;;;25.87;89.93;100663.81;5089184;28;20028;-76
2023/08/25 05:20:47;;;;;;;60.67;33.10;;;;;;;25.91;90.31;100659.50;5090017;28;20019;-74
2023/08/25 05:23:13;;;;;;;46.60;34.50;;;;;;;26.02;90.24;100660.72;5089799;28;20026;-75
2023/08/25 05:25:38;;;;;;;51.88;35.30;;;;;;;25.98;89.61;100644.63;5089617;28;20020;-75
2023/08/25 05:28:04;;;;;;;47.33;34.38;;;;;;;26.08;89.57;100643.28;5090439;28;20028;-75
2023/08/25 05:30:29;;;;;;;52.72;34.08;;;;;;;26.13;88.58;100657.22;5089693;28;20418;-74
2023/08/25 05:32:55;;;;;;;72.03;34.00;;;;;;;26.22;88.51;100659.50;5089830;28;20057;-74
2023/08/25 05:35:20;;;;;;;61.95;32.22;;;;;;;26.10;87.21;100624.59;5089288;28;20087;-75
2023/08/25 05:37:46;;;;;;;57.42;34.28;;;;;;;26.41;87.02;100657.63;5088260;28;20039;-75
2023/08/25 05:40:12;;;;;;;51.67;29.50;;;;;;;26.06;86.32;100590.25;5089538;28;20030;-76
2023/08/25 05:42:38;;;;;;;65.55;31.83;;;;;;;26.56;85.64;100671.06;5053479;28;20042;-75
2023/08/25 05:45:04;;;;;;;47.50;22.02;;;;;;;26.53;83.55;100664.09;5089380;28;20020;-74
2023/08/25 05:47:30;;;;;;;31.75;21.88;;;;;;;26.54;80.14;100660.25;5089681;28;20495;-76
2023/08/25 05:49:55;;;;;;;26.13;17.65;;;;;;;26.63;79.05;100658.88;5089495;28;20020;-76
2023/08/25 05:52:21;;;;;;;34.70;18.75;;;;;;;26.74;76.51;100671.91;5088259;28;20031;-75
2023/08/25 05:54:46;;;;;;;43.10;20.45;;;;;;;26.85;75.70;100676.69;5089680;28;20039;-78
2023/08/25 05:57:12;;;;;;;41.00;20.58;;;;;;;26.67;74.50;100621.47;5088544;28;20419;-80
2023/08/25 05:59:37;;;;;;;27.45;17.55;;;;;;;26.98;70.94;100668.25;5089606;28;20484;-78
2023/08/25 06:02:03;;;;;;;30.13;18.45;;;;;;;27.10;68.82;100679.38;5089273;28;20115;-78
2023/08/25 06:04:28;;;;;;;36.00;13.60;;;;;;;27.17;68.41;100682.06;5089893;28;20069;-78
2023/08/25 06:06:54;;;;;;;45.58;22.45;;;;;;;27.22;68.61;100673.91;5089779;28;20024;-77
2023/08/25 06:09:21;;;;;;;32.75;18.40;;;;;;;27.32;67.26;100683.34;5096475;28;20055;-78
2023/08/25 06:11:47;;;;;;;40.75;19.92;;;;;;;27.21;67.03;100647.38;5107796;28;20020;-78
2023/08/25 06:14:12;;;;;;;36.60;17.25;;;;;;;27.33;65.97;100651.03;5096452;28;20021;-76
2023/08/25 06:16:38;;;;;;;53.63;21.85;;;;;;;27.55;66.25;100660.53;5092682;28;20054;-77
2023/08/25 06:19:04;;;;;;;21.00;14.82;;;;;;;27.66;65.12;100673.53;5092738;28;20535;-76
2023/08/25 06:21:29;;;;;;;35.03;16.65;;;;;;;27.67;64.68;100666.94;5091824;28;20036;-77
2023/08/25 06:23:55;;;;;;;55.17;18.30;;;;;;;27.68;64.61;100663.09;5089827;28;20046;-78
2023/08/25 06:26:20;;;;;;;30.85;18.52;;;;;;;27.80;64.06;100671.41;5089535;28;20020;-76
2023/08/25 06:28:46;;;;;;;33.97;14.20;;;;;;;27.80;64.79;100660.34;5089083;28;20028;-75
2023/08/25 06:31:12;;;;;;;20.23;11.38;;;;;;;27.86;63.77;100670.47;5089616;28;20728;-77
2023/08/25 06:33:38;;;;;;;31.30;12.75;;;;;;;27.97;63.47;100680.72;5087194;28;20411;-77
2023/08/25 06:36:04;;;;;;;22.15;11.50;;;;;;;28.02;63.55;100678.94;5088914;28;20036;-78
2023/08/25 06:38:31;;;;;;;30.95;11.82;;;;;;;27.95;63.42;100664.34;5088437;28;20056;-77
2023/08/25 06:40:56;;;;;;;24.45;12.40;;;;;;;28.20;63.58;100688.22;5088758;28;20027;-78
2023/08/25 06:43:21;;;;;;;26.25;12.18;;;;;;;28.16;62.54;100692.56;5088743;28;20078;-75
2023/08/25 06:45:47;;;;;;;26.90;13.60;;;;;;;28.30;62.80;100699.56;5088579;28;20172;-78
2023/08/25 06:48:13;;;;;;;24.70;13.65;;;;;;;28.39;62.45;100700.88;5088570;28;20021;-78
2023/08/25 06:50:38;;;;;;;27.50;15.07;;;;;;;28.40;62.44;100689.59;5088384;28;20051;-76
2023/08/25 06:53:07;;;;;;;19.75;11.00;;;;;;;28.45;61.79;100697.16;5088434;28;20036;-77
2023/08/25 06:55:35;;;;;;;31.63;10.40;;;;;;;28.55;60.05;100698.25;5088255;28;20043;-78
2023/08/25 06:58:02;;;;;;;23.80;10.27;;;;;;;28.61;59.74;100697.31;5088376;28;20510;-79
2023/08/25 07:00:28;;;;;;;21.23;9.15;;;;;;;28.62;59.62;100701.72;5065560;28;21040;-74
2023/08/25 07:02:53;;;;;;;28.27;8.95;;;;;;;28.68;58.54;100697.22;5065177;28;20036;-75
2023/08/25 07:05:19;;;;;;;23.50;9.13;;;;;;;28.82;58.00;100692.25;5065408;28;20044;-75
2023/08/25 07:07:45;;;;;;;18.60;9.10;;;;;;;28.81;56.19;100685.88;5065512;28;20040;-76
2023/08/25 07:10:13;;;;;;;11.10;8.30;;;;;;;28.97;55.16;100707.28;5065484;28;20115;-76
2023/08/25 07:12:42;;;;;;;15.80;10.07;;;;;;;29.03;54.96;100686.91;5064952;28;20053;-76
2023/08/25 07:15:08;;;;;;;15.68;11.88;;;;;;;29.08;55.33;100678.72;5064419;28;20036;-78
2023/08/25 07:17:34;;;;;;;15.02;11.65;;;;;;;29.25;56.05;100691.81;5065629;28;20040;-74
2023/08/25 07:20:00;;;;;;;21.90;11.68;;;;;;;29.18;58.71;100673.38;5065060;28;20056;-75
2023/08/25 07:22:25;;;;;;;18.88;10.95;;;;;;;29.13;59.26;100648.38;5065152;28;20036;-76
2023/08/25 07:24:53;;;;;;;36.50;12.07;;;;;;;29.27;59.32;100657.25;5065364;28;20596;-77
2023/08/25 07:27:19;;;;;;;22.70;11.48;;;;;;;29.52;60.63;100690.16;5065002;28;20500;-74
2023/08/25 07:29:45;;;;;;;25.60;11.57;;;;;;;29.58;60.84;100678.09;5065077;28;20063;-74
2023/08/25 07:32:11;;;;;;;20.15;11.10;;;;;;;29.56;62.68;100680.28;5083170;28;20095;-75
2023/08/25 07:34:37;;;;;;;20.77;11.30;;;;;;;29.48;63.22;100659.31;5089525;28;20165;-75
2023/08/25 07:37:02;;;;;;;19.92;12.05;;;;;;;29.42;62.97;100659.47;5091807;28;20484;-74
2023/08/25 07:39:28;;;;;;;24.23;12.23;;;;;;;29.55;63.49;100676.66;5091704;28;20047;-75
2023/08/25 07:41:53;;;;;;;32.60;12.77;;;;;;;29.51;62.99;100664.38;5091490;28;20039;-75
2023/08/25 07:44:18;;;;;;;25.05;10.68;;;;;;;29.53;64.11;100678.00;5091372;28;20020;-78
2023/08/25 07:46:44;;;;;;;25.25;10.85;;;;;;;29.36;64.04;100672.38;5091877;28;20552;-83
2023/08/25 07:49:10;;;;;;;19.23;10.68;;;;;;;29.26;64.29;100644.50;5091967;28;20024;-83
2023/08/25 07:51:36;;;;;;;34.17;9.88;;;;;;;29.40;65.06;100673.59;5092069;28;20032;-81
2023/08/25 07:54:01;;;;;;;29.70;9.90;;;;;;;29.32;64.09;100678.69;5091352;28;20082;-77
2023/08/25 07:56:27;;;;;;;17.08;9.75;;;;;;;28.84;64.70;100602.31;5090587;28;20060;-79
2023/08/25 07:58:53;;;;;;;34.53;10.65;;;;;;;29.40;64.10;100689.38;5091265;28;20113;-76
2023/08/25 08:01:19;;;;;;;24.52;10.00;;;;;;;29.33;64.45;100664.56;5091627;28;20598;-75
2023/08/25 08:03:45;;;;;;;17.92;9.07;;;;;;;29.39;65.91;100694.06;5091123;28;20106;-75
2023/08/25 08:06:10;;;;;;;28.58;8.55;;;;;;;29.36;65.88;100688.16;5091114;28;20028;-77
2023/08/25 08:08:36;;;;;;;22.48;8.70;;;;;;;29.20;66.97;100659.31;5091208;28;20055;-75
2023/08/25 08:11:01;;;;;;;21.48;8.93;;;;;;;29.31;66.69;100682.53;5091343;28;20028;-76
2023/08/25 08:13:27;;;;;;;13.07;8.63;;;;;;;29.30;66.91;100692.78;5091117;28;20044;-76
2023/08/25 08:15:52;;;;;;;29.95;7.80;;;;;;;29.37;66.45;100690.72;5090419;28;20504;-78
2023/08/25 08:18:18;;;;;;;28.33;8.02;;;;;;;29.39;66.69;100687.69;5091271;28;20028;-76
2023/08/25 08:20:44;;;;;;;18.58;8.00;;;;;;;29.35;66.14;100667.09;5089519;28;20465;-76
2023/08/25 08:23:09;;;;;;;13.82;7.50;;;;;;;29.23;66.08;100660.72;5091020;28;20103;-77
2023/08/25 08:25:36;;;;;;;19.50;7.70;;;;;;;29.29;66.89;100681.94;5090974;28;20077;-76
2023/08/25 08:28:02;;;;;;;15.63;9.05;;;;;;;29.31;66.15;100688.06;5089606;28;20024;-77
2023/08/25 08:30:27;;;;;;;28.02;8.18;;;;;;;29.30;67.11;100673.38;5090813;28;20043;-77
2023/08/25 08:32:53;;;;;;;24.55;6.82;;;;;;;29.39;67.82;100687.69;5091048;28;20110;-78
2023/08/25 08:35:18;;;;;;;14.95;7.05;;;;;;;29.56;67.65;100691.38;5091019;28;20495;-75
2023/08/25 08:37:44;;;;;;;13.52;6.72;;;;;;;29.52;67.40;100676.31;5089526;28;20077;-76
2023/08/25 08:40:10;;;;;;;14.75;7.05;;;;;;;29.62;67.43;100687.59;5090134;28;20043;-77
2023/08/25 08:42:41;;;;;;;27.63;6.55;;;;;;;29.58;67.17;100672.53;5090523;28;20043;-75
2023/08/25 08:45:10;;;;;;;12.30;6.10;;;;;;;29.51;66.47;100675.47;5090605;28;20035;-78
2023/08/25 08:47:35;;;;;;;17.98;7.20;;;;;;;29.70;66.59;100687.19;5089832;28;20032;-75
2023/08/25 08:50:02;;;;;;;15.68;6.95;;;;;;;29.71;64.85;100680.56;5090348;28;20031;-75
2023/08/25 08:52:29;;;;;;;27.30;8.75;;;;;;;29.76;64.58;100683.41;5090516;28;20063;-74
2023/08/25 08:54:57;;;;;;;19.02;7.63;;;;;;;29.74;65.27;100674.53;5089923;28;20031;-74
2023/08/25 08:57:27;;;;;;;22.40;6.35;;;;;;;29.68;65.24;100668.03;5089959;28;20412;-75
2023/08/25 08:59:52;;;;;;;15.85;7.05;;;;;;;29.88;64.15;100687.00;5090102;28;20106;-74
2023/08/25 09:02:21;;;;;;;40.22;8.52;;;;;;;29.98;63.87;100683.56;5090270;28;20539;-73
2023/08/25 09:04:52;;;;;;;36.83;8.18;;;;;;;29.91;63.72;100682.88;5090391;28;20776;-75
2023/08/25 09:07:18;;;;;;;26.70;7.15;;;;;;;29.61;63.52;100642.41;5089862;28;20115;-75
2023/08/25 09:09:45;;;;;;;33.22;7.35;;;;;;;29.80;60.90;100665.19;5090237;28;20038;-77
2023/08/25 09:12:13;;;;;;;16.00;4.80;;;;;;;29.69;62.40;100677.22;5090342;28;20052;-76
2023/08/25 09:14:38;;;;;;;43.42;7.03;;;;;;;29.75;62.85;100676.22;5089087;28;20365;-76
2023/08/25 09:17:06;;;;;;;9.45;5.07;;;;;;;29.75;60.30;100680.91;5090084;28;20039;-79
2023/08/25 09:19:33;;;;;;;20.33;5.90;;;;;;;29.60;62.37;100678.69;5089738;28;20042;-78
2023/08/25 09:21:59;;;;;;;19.27;6.25;;;;;;;29.59;60.40;100688.09;5088138;28;20552;-77
2023/08/25 09:24:25;;;;;;;12.70;5.50;;;;;;;29.61;57.80;100688.69;5089627;28;20465;-75
2023/08/25 09:26:51;;;;;;;7.43;5.55;;;;;;;29.61;63.73;100691.44;5089744;28;20036;-75
2023/08/25 09:29:17;;;;;;;17.33;6.65;;;;;;;29.72;63.56;100693.34;5090035;28;20093;-76
2023/08/25 09:31:44;;;;;;;13.90;5.53;;;;;;;29.53;61.76;100689.09;5089815;28;20085;-78
2023/08/25 09:34:14;;;;;;;20.83;6.57;;;;;;;29.52;66.07;100684.63;5090629;28;20028;-79
2023/08/25 09:36:54;;;;;;;57.25;11.13;;;;;;;29.48;65.13;100680.69;5089717;28;20406;-76
2023/08/25 09:39:21;;;;;;;13.57;5.90;;;;;;;29.43;66.99;100656.47;5089455;28;20032;-77
2023/08/25 09:41:47;;;;;;;24.48;5.72;;;;;;;29.53;67.48;100691.84;5089461;28;20097;-76
2023/08/25 09:44:13;;;;;;;10.70;5.88;;;;;;;29.38;68.09;100672.16;5089698;28;20036;-77
2023/08/25 09:46:39;;;;;;;34.88;6.28;;;;;;;29.43;67.28;100677.78;5089186;28;20107;-79
2023/08/25 10:02:45;;;;;;;19.15;5.00;;;;;;;29.40;67.62;100675.50;5008071;28;20061;-83
2023/08/25 10:05:12;;;;;;;9.05;4.38;;;;;;;29.48;67.68;100658.50;5011183;28;20065;-84
2023/08/25 10:07:40;;;;;;;9.45;5.22;;;;;;;29.44;69.45;100651.78;5011504;28;20029;-84
2023/08/25 10:10:06;;;;;;;12.15;5.70;;;;;;;29.61;64.79;100663.72;5011043;28;20056;-80
2023/08/25 10:12:34;;;;;;;12.45;5.28;;;;;;;29.62;68.76;100668.19;5011043;28;20036;-85
2023/08/25 10:15:03;;;;;;;17.35;5.20;;;;;;;29.69;65.75;100660.56;5011590;28;20037;-84
2023/08/25 10:17:30;;;;;;;15.70;5.97;;;;;;;29.80;63.67;100667.97;5011739;28;20040;-84
2023/08/25 10:20:01;;;;;;;15.07;4.65;;;;;;;29.89;65.17;100663.72;5013218;28;20038;-83
2023/08/25 10:22:27;;;;;;;16.65;5.35;;;;;;;30.03;61.43;100659.53;5012621;28;20022;-85
2023/08/25 10:25:00;;;;;;;15.18;4.60;;;;;;;30.00;64.45;100651.69;5012334;28;20519;-82
2023/08/25 10:27:26;;;;;;;7.75;5.30;;;;;;;30.05;63.78;100639.88;5014282;28;20608;-81
2023/08/25 10:29:52;;;;;;;14.95;4.70;;;;;;;30.21;63.03;100655.69;5012037;28;20018;-82
2023/08/25 10:32:18;;;;;;;20.65;5.03;;;;;;;30.32;63.93;100665.00;5011610;28;20041;-83
2023/08/25 10:34:46;;;;;;;13.98;5.38;;;;;;;30.11;59.28;100645.25;5011811;28;20473;-82
2023/08/25 10:37:21;;;;;;;12.88;4.80;;;;;;;30.39;61.78;100657.38;5011823;28;20108;-81
2023/08/25 10:39:48;;;;;;;12.90;5.43;;;;;;;30.48;59.62;100650.28;5011386;28;20026;-82
2023/08/25 10:42:18;;;;;;;36.47;5.88;;;;;;;30.50;60.69;100628.66;5011504;28;20528;-82
2023/08/25 10:44:44;;;;;;;13.73;5.05;;;;;;;30.67;60.56;100637.81;5012352;28;20121;-86
2023/08/25 10:47:09;;;;;;;10.93;4.95;;;;;;;30.53;59.66;100647.59;4976914;28;20183;-84
2023/08/25 10:49:38;;;;;;;11.77;4.57;;;;;;;30.57;57.38;100646.00;5012021;28;20037;-85
2023/08/25 10:52:19;;;;;;;13.95;4.60;;;;;;;30.51;59.03;100641.47;5011948;28;20509;-86
2023/08/25 10:54:45;;;;;;;8.30;4.32;;;;;;;30.57;60.39;100646.00;5011931;28;20034;-83
2023/08/25 10:57:37;;;;;;;13.85;5.13;;;;;;;30.48;61.56;100608.66;5013370;28;20034;-83
2023/08/25 11:00:46;;;;;;;17.83;4.55;;;;;;;30.69;58.15;100633.69;5011413;28;20493;-81
2023/08/25 11:03:12;;;;;;;15.18;4.65;;;;;;;30.83;59.00;100636.06;4970435;28;20043;-85
2023/08/25 11:05:41;;;;;;;16.65;4.90;;;;;;;30.90;59.07;100636.72;4970158;28;20035;-82
2023/08/25 11:08:27;;;;;;;12.50;5.18;;;;;;;31.00;59.29;100628.56;4969715;28;20530;-79
2023/08/25 11:11:13;;;;;;;21.02;4.95;;;;;;;31.02;58.36;100632.75;4973310;28;20035;-79
2023/08/25 11:13:39;;;;;;;10.75;4.47;;;;;;;31.00;57.95;100634.94;4973496;28;20134;-80
2023/08/25 11:16:07;;;;;;;12.05;4.55;;;;;;;31.08;57.53;100631.72;4977238;28;20042;-81
2023/08/25 11:18:33;;;;;;;11.43;4.63;;;;;;;30.97;59.51;100629.91;4974909;28;20049;-85
2023/08/25 11:21:01;;;;;;;13.98;4.55;;;;;;;30.93;59.91;100605.63;4976478;28;20034;-79
2023/08/25 11:23:41;;;;;;;28.10;11.10;;;;;;;31.03;60.38;100620.53;4973960;28;20035;-80
2023/08/25 11:26:10;;;;;;;17.52;5.45;;;;;;;31.03;59.98;100626.09;4973384;28;20387;-81